createdAt,value
2023-04-06T00:02:22.651Z,89.85
2023-04-06T00:04:49.169Z,92.41
2023-04-06T00:07:15.878Z,93.73
2023-04-06T00:09:42.423Z,91.50
2023-04-06T00:12:08.969Z,94.89
2023-04-06T00:14:35.528Z,91.94
2023-04-06T00:17:02.574Z,90.92
2023-04-06T00:19:29.187Z,94.76
2023-04-06T00:21:55.957Z,97.46
2023-04-06T00:24:22.608Z,99.02
2023-04-06T00:26:49.250Z,95.06
2023-04-06T00:29:16.157Z,99.22
2023-04-06T00:31:42.799Z,98.08
2023-04-06T00:34:09.411Z,98.58
2023-04-06T00:36:36.095Z,96.82
2023-04-06T00:39:02.673Z,97.79
2023-04-06T00:41:29.278Z,95.37
2023-04-06T00:43:56.025Z,95.33
2023-04-06T00:46:22.632Z,98.98
2023-04-06T00:48:49.202Z,95.96
2023-04-06T00:51:15.854Z,98.78
2023-04-06T00:53:42.424Z,100.00
2023-04-06T00:56:10.837Z,100.00
2023-04-06T00:58:41.666Z,97.49
2023-04-06T01:01:08.463Z,100.00
2023-04-06T01:03:35.137Z,100.00
2023-04-06T01:06:01.788Z,100.00
2023-04-06T01:08:28.858Z,100.00
2023-04-06T01:10:55.678Z,100.00
2023-04-06T01:13:22.206Z,100.00
2023-04-06T01:15:49.011Z,100.00
2023-04-06T01:18:15.928Z,100.00
2023-04-06T01:20:42.636Z,100.00
2023-04-06T01:23:09.219Z,100.00
2023-04-06T01:25:35.971Z,100.00
2023-04-06T01:28:02.610Z,100.00
2023-04-06T01:30:29.176Z,100.00
2023-04-06T01:32:55.802Z,100.00
2023-04-06T01:35:23.375Z,100.00
2023-04-06T01:37:49.978Z,100.00
2023-04-06T01:40:17.075Z,100.00
2023-04-06T01:42:43.731Z,100.00
2023-04-06T01:45:11.168Z,100.00
2023-04-06T01:47:37.726Z,100.00
2023-04-06T01:50:07.097Z,100.00
2023-04-06T01:52:36.756Z,100.00
2023-04-06T01:55:03.349Z,100.00
2023-04-06T01:57:29.919Z,100.00
2023-04-06T01:59:56.482Z,100.00
2023-04-06T02:02:23.104Z,100.00
2023-04-06T02:04:49.678Z,100.00
2023-04-06T02:07:16.220Z,99.96
2023-04-06T02:09:42.780Z,100.00
2023-04-06T02:12:09.316Z,99.68
2023-04-06T02:14:35.867Z,100.00
2023-04-06T02:17:02.427Z,100.00
2023-04-06T02:19:28.989Z,100.00
2023-04-06T02:21:55.546Z,100.00
2023-04-06T02:24:22.100Z,100.00
2023-04-06T02:26:48.650Z,100.00
2023-04-06T02:29:15.302Z,100.00
2023-04-06T02:31:41.874Z,100.00
2023-04-06T02:34:11.992Z,100.00
2023-04-06T02:36:38.498Z,100.00
2023-04-06T02:39:05.114Z,100.00
2023-04-06T02:41:31.621Z,100.00
2023-04-06T02:43:58.158Z,100.00
2023-04-06T02:46:24.834Z,100.00
2023-04-06T02:48:51.540Z,100.00
2023-04-06T02:51:18.058Z,100.00
2023-04-06T02:53:44.575Z,100.00
2023-04-06T02:56:11.458Z,100.00
2023-04-06T02:58:38.075Z,100.00
2023-04-06T03:01:04.896Z,100.00
2023-04-06T03:03:31.701Z,100.00
2023-04-06T03:06:00.684Z,100.00
2023-04-06T03:08:27.338Z,100.00
2023-04-06T03:10:53.880Z,100.00
2023-04-06T03:13:20.637Z,100.00
2023-04-06T03:15:47.260Z,100.00
2023-04-06T03:18:13.891Z,100.00
2023-04-06T03:20:40.476Z,100.00
2023-04-06T03:23:07.078Z,100.00
2023-04-06T03:25:33.622Z,100.00
2023-04-06T03:28:00.245Z,100.00
2023-04-06T03:30:27.634Z,100.00
2023-04-06T03:32:54.260Z,100.00
2023-04-06T03:35:20.941Z,100.00
2023-04-06T03:37:47.555Z,100.00
2023-04-06T03:40:14.199Z,100.00
2023-04-06T03:42:40.764Z,100.00
2023-04-06T03:45:07.905Z,100.00
2023-04-06T03:47:34.498Z,100.00
2023-04-06T03:50:01.323Z,100.00
2023-04-06T03:52:27.854Z,100.00
2023-04-06T03:54:54.350Z,100.00
2023-04-06T03:57:20.987Z,100.00
2023-04-06T03:59:47.536Z,100.00
2023-04-06T04:02:14.101Z,100.00
2023-04-06T04:04:40.688Z,100.00
2023-04-06T04:07:07.176Z,100.00
2023-04-06T04:09:33.714Z,100.00
2023-04-06T04:12:00.245Z,100.00
2023-04-06T04:14:27.444Z,100.00
2023-04-06T04:16:54.088Z,100.00
2023-04-06T04:19:20.946Z,100.00
2023-04-06T04:21:48.063Z,100.00
2023-04-06T04:24:14.802Z,100.00
2023-04-06T04:26:41.445Z,100.00
2023-04-06T04:29:08.502Z,100.00
2023-04-06T04:31:35.299Z,100.00
2023-04-06T04:34:02.663Z,100.00
2023-04-06T04:36:29.207Z,100.00
2023-04-06T04:38:55.915Z,100.00
2023-04-06T04:41:22.442Z,100.00
2023-04-06T04:43:48.955Z,100.00
2023-04-06T04:46:15.536Z,100.00
2023-04-06T04:48:42.232Z,100.00
2023-04-06T04:51:08.790Z,100.00
2023-04-06T04:53:35.566Z,100.00
2023-04-06T04:56:02.544Z,100.00
2023-04-06T04:58:29.100Z,100.00
2023-04-06T05:00:55.886Z,100.00
2023-04-06T05:03:25.890Z,100.00
2023-04-06T05:05:52.620Z,100.00
2023-04-06T05:08:19.501Z,100.00
2023-04-06T05:10:46.499Z,100.00
2023-04-06T05:13:13.221Z,100.00
2023-04-06T05:15:41.267Z,100.00
2023-04-06T05:18:09.198Z,100.00
2023-04-06T05:20:36.718Z,100.00
2023-04-06T05:23:03.379Z,100.00
2023-04-06T05:25:30.011Z,100.00
2023-04-06T05:27:56.851Z,100.00
2023-04-06T05:30:23.476Z,100.00
2023-04-06T05:32:51.899Z,100.00
2023-04-06T05:35:18.736Z,100.00
2023-04-06T05:37:45.366Z,100.00
2023-04-06T05:40:12.040Z,98.28
2023-04-06T05:42:46.148Z,95.22
2023-04-06T05:45:17.770Z,92.26
2023-04-06T05:47:47.631Z,93.55
2023-04-06T05:50:16.747Z,93.30
2023-04-06T05:52:44.231Z,92.95
2023-04-06T05:55:12.164Z,94.15
2023-04-06T05:57:38.964Z,87.64
2023-04-06T06:00:09.138Z,87.36
2023-04-06T06:02:35.747Z,89.03
2023-04-06T06:05:02.675Z,87.76
2023-04-06T06:07:29.253Z,86.90
2023-04-06T06:09:59.262Z,84.33
2023-04-06T06:12:25.937Z,83.67
2023-04-06T06:14:52.607Z,83.67
2023-04-06T06:17:19.128Z,80.71
2023-04-06T06:19:45.926Z,79.66
2023-04-06T06:22:12.497Z,77.23
2023-04-06T06:24:39.363Z,75.30
2023-04-06T06:27:06.097Z,70.16
2023-04-06T06:29:32.674Z,62.45
2023-04-06T06:31:59.304Z,60.35
2023-04-06T06:34:26.454Z,60.63
2023-04-06T06:36:55.296Z,61.57
2023-04-06T06:39:22.122Z,61.02
2023-04-06T06:41:48.631Z,61.45
2023-04-06T06:44:15.509Z,62.25
2023-04-06T06:46:42.027Z,62.44
2023-04-06T06:49:08.650Z,61.91
2023-04-06T06:51:35.416Z,60.89
2023-04-06T06:54:02.018Z,60.28
2023-04-06T06:56:28.918Z,61.78
2023-04-06T06:58:55.727Z,60.59
2023-04-06T07:01:22.389Z,59.03
2023-04-06T07:03:49.145Z,58.73
2023-04-06T07:06:15.820Z,58.56
2023-04-06T07:08:42.453Z,59.18
2023-04-06T07:11:09.118Z,57.76
2023-04-06T07:13:35.700Z,56.89
2023-04-06T07:16:02.237Z,55.60
2023-04-06T07:18:28.778Z,54.83
2023-04-06T07:20:55.368Z,54.81
2023-04-06T07:23:21.953Z,54.40
2023-04-06T07:25:48.552Z,54.18
2023-04-06T07:28:15.234Z,54.08
2023-04-06T07:30:41.808Z,52.05
2023-04-06T07:33:08.474Z,53.12
2023-04-06T07:35:35.943Z,52.31
2023-04-06T07:38:02.602Z,51.57
2023-04-06T07:40:29.270Z,49.63
2023-04-06T07:42:57.559Z,48.71
2023-04-06T07:45:24.708Z,48.79
2023-04-06T07:47:51.400Z,48.48
2023-04-06T07:50:18.197Z,46.73
2023-04-06T07:52:44.763Z,46.36
2023-04-06T07:55:11.433Z,47.09
2023-04-06T07:57:38.199Z,46.66
2023-04-06T08:00:05.449Z,45.90
2023-04-06T08:02:35.230Z,44.85
2023-04-06T08:05:01.995Z,46.12
2023-04-06T08:07:28.570Z,43.85
2023-04-06T08:09:55.212Z,42.04
2023-04-06T08:12:21.747Z,41.06
2023-04-06T08:14:49.287Z,41.40
2023-04-06T08:17:16.018Z,42.19
2023-04-06T08:19:45.161Z,40.33
2023-04-06T08:22:12.432Z,39.39
2023-04-06T08:24:39.197Z,35.90
2023-04-06T08:27:05.793Z,34.39
2023-04-06T08:29:32.401Z,32.76
2023-04-06T08:31:59.006Z,31.67
2023-04-06T08:34:25.895Z,29.79
2023-04-06T08:36:52.503Z,27.94
2023-04-06T08:39:26.051Z,28.79
2023-04-06T08:41:53.754Z,27.39
2023-04-06T08:44:20.553Z,27.62
2023-04-06T08:46:47.510Z,28.11
2023-04-06T08:49:17.070Z,27.70
2023-04-06T08:51:43.980Z,25.42
2023-04-06T08:54:10.734Z,26.16
2023-04-06T08:56:39.812Z,28.50
2023-04-06T08:59:07.457Z,27.58
2023-04-06T09:01:41.153Z,28.08
2023-04-06T09:04:12.132Z,27.45
2023-04-06T09:06:41.607Z,28.50
2023-04-06T09:09:08.595Z,27.91
2023-04-06T09:11:51.639Z,27.98
2023-04-06T09:14:37.419Z,27.27
2023-04-06T09:17:04.085Z,27.50
2023-04-06T09:19:30.688Z,26.53
2023-04-06T09:22:10.021Z,25.69
2023-04-06T09:24:51.867Z,26.28
2023-04-06T09:27:30.750Z,26.01
2023-04-06T09:30:08.792Z,24.58
2023-04-06T09:32:51.492Z,24.67
2023-04-06T09:35:20.991Z,25.31
2023-04-06T09:37:48.924Z,24.99
2023-04-06T09:40:15.902Z,23.48
2023-04-06T09:42:43.386Z,22.06
2023-04-06T09:45:10.408Z,18.78
2023-04-06T09:47:38.253Z,19.70
2023-04-06T09:50:05.815Z,17.29
2023-04-06T09:52:41.467Z,16.54
2023-04-06T09:55:09.267Z,15.07
2023-04-06T09:57:49.908Z,15.66
2023-04-06T10:00:20.234Z,13.21
2023-04-06T10:02:47.381Z,13.73
2023-04-06T10:05:16.936Z,13.68
2023-04-06T10:07:59.059Z,13.27
2023-04-06T10:10:28.632Z,11.90
2023-04-06T10:12:56.960Z,11.67
2023-04-06T10:15:24.072Z,12.93
2023-04-06T10:17:52.040Z,12.64
2023-04-06T10:20:28.331Z,12.12
2023-04-06T10:23:21.786Z,12.73
2023-04-06T10:25:58.730Z,11.71
2023-04-06T10:28:26.290Z,12.60
2023-04-06T10:31:00.738Z,12.38
2023-04-06T10:33:27.770Z,11.99
2023-04-06T10:35:56.086Z,11.69
2023-04-06T10:38:33.960Z,13.42
2023-04-06T10:41:11.209Z,13.51
2023-04-06T10:43:39.973Z,15.80
2023-04-06T10:46:08.251Z,19.00
2023-04-06T10:48:51.129Z,21.32
2023-04-06T10:51:19.018Z,22.66
2023-04-06T10:53:50.110Z,24.52
2023-04-06T10:56:18.105Z,25.16
2023-04-06T10:58:53.594Z,24.64
2023-04-06T11:01:22.153Z,24.11
2023-04-06T11:03:54.288Z,24.65
2023-04-06T11:06:27.699Z,24.15
2023-04-06T11:08:55.781Z,24.64
2023-04-06T11:11:24.520Z,23.77
2023-04-06T11:13:52.496Z,25.19
2023-04-06T11:16:24.927Z,24.54
2023-04-06T11:19:03.318Z,20.84
2023-04-06T11:21:34.235Z,22.75
2023-04-06T11:24:09.700Z,22.96
2023-04-06T11:27:05.911Z,22.96
2023-04-06T11:29:32.945Z,21.60
2023-04-06T11:32:00.754Z,18.96
2023-04-06T11:34:30.375Z,16.20
2023-04-06T11:36:59.440Z,17.81
2023-04-06T11:39:27.823Z,20.64
2023-04-06T11:42:03.578Z,17.54
2023-04-06T11:44:43.783Z,15.11
2023-04-06T11:47:11.828Z,14.83
2023-04-06T11:49:43.139Z,13.79
2023-04-06T11:52:16.692Z,16.12
2023-04-06T11:54:43.323Z,16.45
2023-04-06T11:57:10.361Z,13.81
2023-04-06T11:59:37.365Z,13.04
2023-04-06T12:02:04.426Z,12.62
2023-04-06T12:04:32.004Z,12.24
2023-04-06T12:06:59.155Z,12.58
2023-04-06T12:09:25.794Z,13.40
2023-04-06T12:11:52.441Z,13.83
2023-04-06T12:14:19.071Z,14.67
2023-04-06T12:16:45.741Z,15.05
2023-04-06T12:19:12.284Z,16.70
2023-04-06T12:21:38.981Z,16.68
2023-04-06T12:24:06.485Z,15.05
2023-04-06T12:26:33.918Z,15.48
2023-04-06T12:29:08.209Z,14.12
2023-04-06T12:31:40.146Z,13.07
2023-04-06T12:34:06.994Z,12.45
2023-04-06T12:36:34.542Z,12.89
2023-04-06T12:39:01.942Z,12.76
2023-04-06T12:41:29.293Z,12.83
2023-04-06T12:43:55.933Z,12.18
2023-04-06T12:46:23.066Z,12.36
2023-04-06T12:48:49.738Z,11.89
2023-04-06T12:51:16.623Z,11.43
2023-04-06T12:53:43.512Z,12.22
2023-04-06T12:56:18.458Z,10.55
2023-04-06T12:58:45.805Z,12.35
2023-04-06T13:01:15.392Z,13.64
2023-04-06T13:03:42.374Z,13.26
2023-04-06T13:06:09.668Z,13.91
2023-04-06T13:08:38.228Z,15.59
2023-04-06T13:11:05.999Z,18.14
2023-04-06T13:13:32.753Z,19.25
2023-04-06T13:16:08.210Z,20.60
2023-04-06T13:18:35.689Z,21.80
2023-04-06T13:21:02.313Z,21.37
2023-04-06T13:23:29.172Z,19.90
2023-04-06T13:26:04.438Z,17.51
2023-04-06T13:28:31.806Z,17.17
2023-04-06T13:31:01.361Z,18.89
2023-04-06T13:33:28.244Z,20.32
2023-04-06T13:35:54.980Z,21.13
2023-04-06T13:38:21.847Z,21.37
2023-04-06T13:40:48.416Z,21.37
2023-04-06T13:43:15.025Z,22.02
2023-04-06T13:45:41.913Z,22.33
2023-04-06T13:48:08.622Z,22.79
2023-04-06T13:50:36.144Z,22.27
2023-04-06T13:53:02.654Z,22.55
2023-04-06T13:55:29.448Z,22.90
2023-04-06T13:57:56.190Z,23.91
2023-04-06T14:00:22.925Z,25.63
2023-04-06T14:02:49.694Z,26.67
2023-04-06T14:05:16.342Z,25.64
2023-04-06T14:07:42.811Z,26.29
2023-04-06T14:10:14.726Z,26.56
2023-04-06T14:12:45.794Z,27.38
2023-04-06T14:15:13.192Z,27.63
2023-04-06T14:17:40.657Z,27.51
2023-04-06T14:20:08.532Z,27.16
2023-04-06T14:22:35.124Z,27.65
2023-04-06T14:25:02.086Z,27.49
2023-04-06T14:27:28.561Z,27.34
2023-04-06T14:29:55.231Z,27.11
2023-04-06T14:32:22.016Z,27.14
2023-04-06T14:34:48.620Z,27.53
2023-04-06T14:37:15.714Z,27.31
2023-04-06T14:39:42.294Z,27.73
2023-04-06T14:42:08.809Z,27.92
2023-04-06T14:44:37.645Z,28.09
2023-04-06T14:47:07.645Z,28.17
2023-04-06T14:49:34.137Z,28.43
2023-04-06T14:52:00.885Z,28.42
2023-04-06T14:54:27.793Z,28.35
2023-04-06T14:56:54.310Z,28.56
2023-04-06T14:59:20.937Z,28.65
2023-04-06T15:01:47.523Z,28.01
2023-04-06T15:04:15.164Z,27.99
2023-04-06T15:06:41.891Z,28.57
2023-04-06T15:09:08.429Z,28.13
2023-04-06T15:11:34.904Z,29.26
2023-04-06T15:14:01.519Z,29.48
2023-04-06T15:16:28.228Z,29.97
2023-04-06T15:18:54.872Z,30.09
2023-04-06T15:21:21.615Z,30.36
2023-04-06T15:23:48.527Z,30.02
2023-04-06T15:26:15.522Z,29.89
2023-04-06T15:28:42.084Z,29.52
2023-04-06T15:31:33.097Z,30.21
2023-04-06T15:34:03.960Z,30.68
2023-04-06T15:36:30.945Z,30.32
2023-04-06T15:39:01.129Z,30.50
2023-04-06T15:41:28.450Z,30.82
2023-04-06T15:43:56.000Z,30.65
2023-04-06T15:46:22.904Z,30.58
2023-04-06T15:48:49.845Z,31.24
2023-04-06T15:51:19.109Z,31.20
2023-04-06T15:53:46.392Z,31.30
2023-04-06T15:59:08.456Z,32.13
2023-04-06T16:01:35.237Z,32.42
2023-04-06T16:04:01.977Z,32.51
2023-04-06T16:06:28.650Z,33.00
2023-04-06T16:08:55.292Z,32.56
2023-04-06T16:11:22.041Z,32.28
2023-04-06T16:13:54.944Z,32.86
2023-04-06T16:16:22.408Z,33.47
2023-04-06T16:18:49.028Z,33.58
2023-04-06T16:21:17.292Z,33.20
2023-04-06T16:23:45.317Z,33.61
2023-04-06T16:26:18.140Z,33.92
2023-04-06T16:28:45.694Z,34.79
2023-04-06T16:31:20.178Z,34.86
2023-04-06T16:33:47.041Z,34.21
2023-04-06T16:36:13.747Z,34.15
2023-04-06T16:38:40.276Z,34.80
2023-04-06T16:41:06.891Z,35.07
2023-04-06T16:43:33.376Z,35.21
2023-04-06T16:45:59.903Z,35.48
2023-04-06T16:48:26.725Z,35.45
2023-04-06T16:50:53.398Z,35.38
2023-04-06T16:53:19.945Z,35.43
2023-04-06T16:55:46.508Z,35.66
2023-04-06T16:58:14.225Z,35.55
2023-04-06T17:00:40.830Z,35.55
2023-04-06T17:03:07.661Z,35.51
2023-04-06T17:05:35.870Z,36.32
2023-04-06T17:08:02.714Z,36.06
2023-04-06T17:10:33.834Z,35.93
2023-04-06T17:13:03.822Z,36.75
2023-04-06T17:15:31.735Z,37.04
2023-04-06T17:17:58.307Z,36.50
2023-04-06T17:20:24.898Z,36.64
2023-04-06T17:22:51.558Z,37.06
2023-04-06T17:25:18.287Z,37.16
2023-04-06T17:27:44.929Z,37.28
2023-04-06T17:30:12.773Z,37.67
2023-04-06T17:32:39.663Z,37.97
2023-04-06T17:35:06.641Z,38.23
2023-04-06T17:37:33.494Z,38.50
2023-04-06T17:40:00.123Z,40.57
2023-04-06T17:42:27.508Z,40.06
2023-04-06T17:44:54.060Z,39.80
2023-04-06T17:47:20.761Z,39.26
2023-04-06T17:49:47.685Z,41.06
2023-04-06T17:52:14.223Z,41.51
2023-04-06T17:54:41.275Z,43.46
2023-04-06T17:57:08.573Z,45.85
2023-04-06T17:59:35.309Z,44.84
2023-04-06T18:02:03.219Z,45.36
2023-04-06T18:04:30.110Z,44.89
2023-04-06T18:06:56.761Z,44.92
2023-04-06T18:09:23.305Z,46.92
2023-04-06T18:11:49.805Z,47.61
2023-04-06T18:14:16.593Z,46.18
2023-04-06T18:16:43.184Z,47.53
2023-04-06T18:19:09.901Z,50.77
2023-04-06T18:21:36.428Z,49.05
2023-04-06T18:24:05.381Z,51.13
2023-04-06T18:26:33.487Z,51.79
2023-04-06T18:29:00.018Z,54.71
2023-04-06T18:31:26.568Z,53.32
2023-04-06T18:33:54.436Z,53.71
2023-04-06T18:36:21.387Z,54.35
2023-04-06T18:38:48.917Z,54.69
2023-04-06T18:41:16.475Z,53.35
2023-04-06T18:43:43.218Z,55.57
2023-04-06T18:46:13.644Z,56.04
2023-04-06T18:48:41.780Z,56.56
2023-04-06T18:51:08.652Z,56.17
2023-04-06T18:53:37.291Z,55.34
2023-04-06T18:56:16.654Z,58.26
2023-04-06T18:58:44.228Z,56.79
2023-04-06T19:01:11.003Z,58.71
2023-04-06T19:03:37.864Z,58.36
2023-04-06T19:06:07.439Z,59.65
2023-04-06T19:08:33.986Z,60.88
2023-04-06T19:11:05.475Z,58.18
2023-04-06T19:13:32.001Z,56.87
2023-04-06T19:15:58.536Z,59.12
2023-04-06T19:18:25.073Z,57.40
2023-04-06T19:20:52.828Z,58.56
2023-04-06T19:23:19.441Z,58.72
2023-04-06T19:25:46.027Z,59.61
2023-04-06T19:28:14.731Z,60.26
2023-04-06T19:30:42.240Z,59.73
2023-04-06T19:33:09.180Z,61.61
2023-04-06T19:35:35.843Z,61.80
2023-04-06T19:38:02.365Z,66.86
2023-04-06T19:40:28.851Z,63.84
2023-04-06T19:42:55.440Z,64.66
2023-04-06T19:45:21.940Z,65.60
2023-04-06T19:47:48.477Z,69.86
2023-04-06T19:50:15.549Z,73.19
2023-04-06T19:52:42.150Z,68.17
2023-04-06T19:55:08.967Z,70.97
2023-04-06T19:57:35.569Z,68.63
2023-04-06T20:00:02.137Z,68.86
2023-04-06T20:02:29.083Z,68.76
2023-04-06T20:04:55.782Z,70.56
2023-04-06T20:07:22.146Z,71.20
2023-04-06T20:09:48.709Z,67.95
2023-04-06T20:12:15.476Z,69.84
2023-04-06T20:14:41.996Z,70.99
2023-04-06T20:17:08.609Z,71.22
2023-04-06T20:19:35.414Z,71.16
2023-04-06T20:22:03.705Z,72.03
2023-04-06T20:24:31.356Z,72.43
2023-04-06T20:26:58.192Z,70.81
2023-04-06T20:29:24.943Z,71.41
2023-04-06T20:31:51.872Z,74.95
2023-04-06T20:34:18.697Z,73.58
2023-04-06T20:36:45.403Z,72.52
2023-04-06T20:39:11.968Z,71.34
2023-04-06T20:41:38.591Z,75.21
2023-04-06T20:44:05.121Z,77.91
2023-04-06T20:46:31.707Z,75.31
2023-04-06T20:48:59.106Z,76.61
2023-04-06T20:51:25.710Z,77.19
2023-04-06T20:53:52.954Z,73.10
2023-04-06T20:56:21.808Z,76.87
2023-04-06T20:58:48.795Z,75.53
2023-04-06T21:01:17.643Z,74.22
2023-04-06T21:03:45.204Z,77.29
2023-04-06T21:06:12.031Z,77.67
2023-04-06T21:08:38.995Z,78.39
2023-04-06T21:11:06.457Z,79.48
2023-04-06T21:13:33.717Z,79.64
2023-04-06T21:16:01.614Z,78.28
2023-04-06T21:18:29.339Z,78.25
2023-04-06T21:20:55.947Z,81.07
2023-04-06T21:23:23.089Z,79.25
2023-04-06T21:25:53.498Z,80.69
2023-04-06T21:28:20.024Z,83.37
2023-04-06T21:30:46.708Z,84.38
2023-04-06T21:33:13.295Z,83.00
2023-04-06T21:35:41.073Z,83.52
2023-04-06T21:38:08.694Z,83.63
2023-04-06T21:40:35.537Z,82.94
2023-04-06T21:43:02.349Z,82.24
2023-04-06T21:45:28.905Z,81.09
2023-04-06T21:47:55.662Z,81.81
2023-04-06T21:50:25.304Z,80.88
2023-04-06T21:52:51.843Z,80.81
2023-04-06T21:55:18.418Z,79.83
2023-04-06T21:57:44.987Z,81.03
2023-04-06T22:00:12.176Z,81.87
2023-04-06T22:02:40.914Z,81.79
2023-04-06T22:05:08.688Z,85.09
2023-04-06T22:07:35.330Z,82.55
2023-04-06T22:10:02.054Z,81.87
2023-04-06T22:12:28.583Z,82.27
2023-04-06T22:14:55.072Z,83.81
2023-04-06T22:17:21.748Z,87.01
2023-04-06T22:19:48.283Z,87.25
2023-04-06T22:22:14.784Z,84.06
2023-04-06T22:24:41.362Z,83.96
2023-04-06T22:27:07.915Z,84.51
2023-04-06T22:29:34.499Z,85.34
2023-04-06T22:32:01.205Z,84.64
2023-04-06T22:34:27.777Z,86.25
2023-04-06T22:36:54.350Z,88.82
2023-04-06T22:39:20.920Z,89.17
2023-04-06T22:41:47.459Z,88.85
2023-04-06T22:44:14.115Z,86.56
2023-04-06T22:46:40.980Z,84.58
2023-04-06T22:49:07.504Z,86.68
2023-04-06T22:51:34.046Z,87.91
2023-04-06T22:54:00.586Z,89.50
2023-04-06T22:56:27.162Z,96.28
2023-04-06T22:58:55.881Z,91.95
2023-04-06T23:01:22.402Z,91.92
2023-04-06T23:03:49.068Z,92.03
2023-04-06T23:06:15.711Z,95.91
2023-04-06T23:08:42.268Z,94.92
2023-04-06T23:11:08.761Z,91.35
2023-04-06T23:13:35.319Z,93.80
2023-04-06T23:16:02.172Z,92.07
2023-04-06T23:18:28.708Z,89.52
2023-04-06T23:20:55.379Z,89.39
2023-04-06T23:23:21.997Z,90.67
2023-04-06T23:25:48.449Z,90.69
2023-04-06T23:28:14.913Z,91.48
2023-04-06T23:30:41.777Z,94.23
2023-04-06T23:33:08.333Z,93.51
2023-04-06T23:35:34.884Z,90.70
2023-04-06T23:38:01.395Z,90.29
2023-04-06T23:40:27.978Z,90.78
2023-04-06T23:42:54.503Z,96.60
2023-04-06T23:45:21.264Z,96.09
2023-04-06T23:47:47.944Z,94.28
2023-04-06T23:50:14.509Z,93.40
2023-04-06T23:52:41.362Z,94.80
2023-04-06T23:55:08.196Z,93.37
2023-04-06T23:57:34.706Z,92.29
